Time;durP1;ratioP1;P1;durP2;ratioP2;P2;SDS_P1;SDS_P2;PMS_P1;PMS_P2;Temp;Humidity;BMP_temperature;BMP_pressure;BME280_temperature;BME280_humidity;BME280_pressure;Samples;Min_cycle;Max_cycle;Signal;HPM_P1;HPM_P2
2021/11/25 00:00:46;;;;;;;29.00;19.52;;;3.50;99.90;;;;;;5095448;28;20028;-71
2021/11/25 00:03:11;;;;;;;33.58;19.42;;;3.60;99.90;;;;;;5094867;28;20030;-71
2021/11/25 00:05:38;;;;;;;31.38;18.63;;;3.60;99.90;;;;;;5096244;28;20103;-70
2021/11/25 00:08:04;;;;;;;29.40;19.98;;;3.60;99.90;;;;;;5094796;28;20049;-70
2021/11/25 00:10:30;;;;;;;33.55;21.92;;;3.60;99.90;;;;;;5095425;28;20134;-70
2021/11/25 00:12:56;;;;;;;35.80;21.45;;;3.60;99.90;;;;;;5096131;28;20020;-70
2021/11/25 00:15:22;;;;;;;37.58;21.20;;;3.70;99.90;;;;;;5094894;28;20449;-70
2021/11/25 00:17:48;;;;;;;29.65;20.52;;;3.70;99.90;;;;;;5095999;28;20028;-71
2021/11/25 00:20:14;;;;;;;32.03;21.65;;;3.70;99.90;;;;;;5094540;28;20518;-71
2021/11/25 00:22:43;;;;;;;34.30;21.38;;;3.80;99.90;;;;;;5095348;28;20385;-70
2021/11/25 00:25:10;;;;;;;35.53;22.10;;;3.80;99.90;;;;;;5095849;28;20055;-70
2021/11/25 00:27:36;;;;;;;37.13;23.15;;;3.70;99.90;;;;;;5094670;28;20126;-71
2021/11/25 00:30:04;;;;;;;36.10;22.27;;;3.80;99.90;;;;;;5095708;28;20016;-71
2021/11/25 00:32:30;;;;;;;38.60;24.02;;;3.80;99.90;;;;;;5094460;28;20048;-71
2021/11/25 00:34:56;;;;;;;40.42;23.90;;;3.80;99.90;;;;;;5095116;28;20024;-71
2021/11/25 00:37:21;;;;;;;36.67;23.45;;;3.80;99.90;;;;;;5095646;28;20476;-71
2021/11/25 00:39:47;;;;;;;33.45;21.70;;;3.80;99.90;;;;;;5094137;28;20027;-70
2021/11/25 00:42:12;;;;;;;36.03;23.60;;;3.80;99.90;;;;;;5095529;28;20035;-71
2021/11/25 00:44:38;;;;;;;35.65;23.08;;;3.80;99.90;;;;;;5095467;28;20034;-71
2021/11/25 00:47:03;;;;;;;37.42;23.30;;;3.90;99.90;;;;;;5095436;28;20453;-70
2021/11/25 00:49:29;;;;;;;32.50;21.75;;;3.90;99.90;;;;;;5095273;28;20028;-71
2021/11/25 00:51:55;;;;;;;36.10;22.02;;;3.90;99.90;;;;;;5076718;28;20047;-71
2021/11/25 00:54:20;;;;;;;37.38;22.58;;;3.90;99.90;;;;;;5095315;28;20472;-70
2021/11/25 00:56:46;;;;;;;35.67;21.65;;;3.90;99.90;;;;;;5095006;28;20380;-70
2021/11/25 00:59:11;;;;;;;34.03;21.13;;;3.90;99.90;;;;;;5093460;28;20066;-70
2021/11/25 01:01:37;;;;;;;35.15;22.42;;;3.90;99.90;;;;;;5095185;28;20020;-70
2021/11/25 01:04:05;;;;;;;28.50;19.95;;;4.00;99.90;;;;;;5095110;28;20087;-70
2021/11/25 01:06:30;;;;;;;30.05;20.52;;;3.90;99.90;;;;;;5094798;28;20437;-70
2021/11/25 01:08:56;;;;;;;28.77;20.48;;;3.90;99.90;;;;;;5094692;28;20123;-70
2021/11/25 01:11:25;;;;;;;30.38;19.88;;;3.90;99.90;;;;;;5094983;28;20028;-70
2021/11/25 01:13:51;;;;;;;31.45;20.88;;;3.90;99.90;;;;;;5094995;28;20457;-71
2021/11/25 01:16:17;;;;;;;31.58;20.50;;;3.90;99.90;;;;;;5093452;28;20059;-70
2021/11/25 01:18:43;;;;;;;29.50;20.90;;;3.90;99.90;;;;;;5094933;28;20023;-70
2021/11/25 01:21:08;;;;;;;31.98;19.83;;;3.90;99.90;;;;;;5094283;28;20028;-71
2021/11/25 01:23:34;;;;;;;31.63;21.23;;;3.90;99.90;;;;;;5092975;28;20024;-71
2021/11/25 01:25:59;;;;;;;31.33;21.65;;;3.90;99.90;;;;;;5094709;28;20487;-71
2021/11/25 01:28:27;;;;;;;32.97;20.10;;;3.80;99.90;;;;;;5094676;28;20024;-70
2021/11/25 01:30:56;;;;;;;31.27;21.20;;;3.80;99.90;;;;;;5094348;28;20020;-71
2021/11/25 01:33:23;;;;;;;33.85;19.98;;;3.80;99.90;;;;;;5094393;28;20012;-71
2021/11/25 01:35:50;;;;;;;32.63;21.30;;;3.80;99.90;;;;;;5094021;28;20488;-70
2021/11/25 01:38:18;;;;;;;28.33;20.30;;;3.90;99.90;;;;;;5092750;28;20028;-70
2021/11/25 01:40:45;;;;;;;28.73;20.67;;;3.90;99.90;;;;;;5092708;28;20058;-70
2021/11/25 01:43:12;;;;;;;30.05;20.60;;;3.90;99.90;;;;;;5094453;28;20027;-70
2021/11/25 01:45:38;;;;;;;31.05;20.13;;;3.90;99.90;;;;;;5094295;28;20073;-70
2021/11/25 01:48:05;;;;;;;29.75;20.38;;;3.90;99.90;;;;;;5093001;28;20028;-70
2021/11/25 01:50:32;;;;;;;28.38;19.48;;;3.90;99.90;;;;;;5094343;28;20056;-71
2021/11/25 01:52:59;;;;;;;30.20;20.40;;;3.90;99.90;;;;;;5094348;28;20013;-70
2021/11/25 01:55:26;;;;;;;28.25;18.63;;;3.90;99.90;;;;;;5093792;28;20024;-71
2021/11/25 01:57:53;;;;;;;29.10;19.65;;;3.90;99.90;;;;;;5092538;28;20350;-70
2021/11/25 02:00:33;;;;;;;26.60;18.67;;;3.90;99.90;;;;;;5094259;28;20016;-70
2021/11/25 02:03:00;;;;;;;29.52;19.95;;;3.90;99.90;;;;;;5092746;28;20024;-71
2021/11/25 02:05:27;;;;;;;25.17;18.60;;;3.90;99.90;;;;;;5092745;28;20449;-71
2021/11/25 02:07:52;;;;;;;26.75;19.05;;;3.90;99.90;;;;;;5093926;28;20427;-70
2021/11/25 02:10:19;;;;;;;27.92;19.98;;;3.90;99.90;;;;;;5093414;28;20052;-70
2021/11/25 02:12:45;;;;;;;29.60;19.88;;;4.00;99.90;;;;;;5092975;28;20048;-71
2021/11/25 02:15:14;;;;;;;28.58;18.67;;;3.90;99.90;;;;;;5094150;28;20024;-70
2021/11/25 02:17:40;;;;;;;26.65;19.17;;;3.90;99.90;;;;;;5092274;28;20024;-70
2021/11/25 02:20:09;;;;;;;28.35;19.77;;;4.00;99.90;;;;;;5092917;28;20024;-70
2021/11/25 02:22:36;;;;;;;29.20;19.70;;;4.00;99.90;;;;;;5093769;28;20024;-70
2021/11/25 02:25:02;;;;;;;29.90;20.38;;;4.00;99.90;;;;;;5093475;28;20024;-70
2021/11/25 02:27:27;;;;;;;26.23;19.25;;;4.00;99.90;;;;;;5093443;28;20024;-71
2021/11/25 02:29:53;;;;;;;29.58;19.95;;;4.00;99.90;;;;;;5093829;28;20016;-71
2021/11/25 02:32:36;;;;;;;26.38;20.08;;;4.00;99.90;;;;;;5093885;28;20024;-70
2021/11/25 02:35:09;;;;;;;29.75;20.23;;;4.00;99.90;;;;;;5093947;28;20020;-71
2021/11/25 02:37:35;;;;;;;31.58;19.70;;;4.00;99.90;;;;;;5092240;28;20036;-70
2021/11/25 02:40:19;;;;;;;30.98;20.05;;;3.90;99.90;;;;;;5093887;28;20032;-70
2021/11/25 02:42:48;;;;;;;31.23;20.25;;;3.90;99.90;;;;;;5093877;28;20030;-70
2021/11/25 02:45:13;;;;;;;30.38;19.40;;;4.00;99.90;;;;;;5093891;28;20043;-71
2021/11/25 02:47:39;;;;;;;27.75;19.00;;;4.00;99.90;;;;;;5092022;28;20465;-70
2021/11/25 02:50:05;;;;;;;27.95;20.13;;;4.00;99.90;;;;;;5075111;28;20415;-70
2021/11/25 02:52:30;;;;;;;28.55;20.45;;;4.00;99.90;;;;;;5093797;28;20093;-70
2021/11/25 02:54:56;;;;;;;30.77;21.27;;;4.00;99.90;;;;;;5093742;28;20457;-70
2021/11/25 02:57:21;;;;;;;28.00;19.98;;;4.00;99.90;;;;;;5095932;28;20034;-71
2021/11/25 02:59:47;;;;;;;32.20;21.10;;;4.00;99.90;;;;;;5078852;28;20028;-70
2021/11/25 03:02:12;;;;;;;29.63;20.58;;;4.00;99.90;;;;;;5096343;28;20091;-70
2021/11/25 03:04:38;;;;;;;29.33;19.85;;;4.00;99.90;;;;;;5078773;28;20032;-70
2021/11/25 03:07:04;;;;;;;29.05;20.25;;;4.00;99.90;;;;;;5095582;28;20024;-70
2021/11/25 03:09:29;;;;;;;29.25;20.50;;;4.00;99.90;;;;;;5096852;28;20409;-71
2021/11/25 03:11:55;;;;;;;27.02;20.27;;;4.00;99.90;;;;;;5097308;28;20024;-71
2021/11/25 03:14:21;;;;;;;30.52;20.33;;;4.00;99.90;;;;;;5097271;28;20031;-70
2021/11/25 03:16:47;;;;;;;28.83;19.80;;;4.00;99.90;;;;;;5095933;28;20020;-71
2021/11/25 03:19:13;;;;;;;28.15;19.92;;;4.00;99.90;;;;;;5097156;28;20089;-71
2021/11/25 03:21:39;;;;;;;28.67;20.00;;;4.00;99.90;;;;;;5095442;28;20104;-71
2021/11/25 03:24:05;;;;;;;30.75;21.05;;;4.00;99.90;;;;;;5095660;28;20024;-69
2021/11/25 03:26:31;;;;;;;29.65;20.75;;;4.00;99.90;;;;;;5097075;28;20087;-69
2021/11/25 03:29:01;;;;;;;31.90;21.40;;;4.00;99.90;;;;;;5095392;28;20024;-70
2021/11/25 03:31:30;;;;;;;29.35;20.05;;;4.00;99.90;;;;;;5096912;28;20066;-69
2021/11/25 03:33:57;;;;;;;30.33;21.48;;;4.00;99.90;;;;;;5095888;28;20024;-69
2021/11/25 03:36:24;;;;;;;29.77;18.80;;;4.10;99.90;;;;;;5095397;28;20023;-70
2021/11/25 03:38:50;;;;;;;27.15;18.52;;;4.10;99.90;;;;;;5096800;28;20460;-71
2021/11/25 03:41:17;;;;;;;31.05;19.45;;;4.10;99.90;;;;;;5078102;28;20516;-71
2021/11/25 03:43:43;;;;;;;29.98;20.17;;;4.10;99.90;;;;;;5096702;28;20484;-71
2021/11/25 03:46:09;;;;;;;28.88;19.55;;;4.10;99.90;;;;;;5096682;28;20024;-71
2021/11/25 03:48:35;;;;;;;29.58;20.17;;;4.10;99.90;;;;;;5096317;28;20024;-71
2021/11/25 03:51:03;;;;;;;31.02;20.00;;;4.10;99.90;;;;;;5095935;28;20085;-71
2021/11/25 03:53:31;;;;;;;28.65;19.27;;;4.20;99.90;;;;;;5078415;28;20525;-71
2021/11/25 03:55:57;;;;;;;25.33;19.23;;;4.10;99.90;;;;;;5095041;28;20499;-71
2021/11/25 03:58:22;;;;;;;30.08;20.90;;;4.10;99.90;;;;;;5094628;28;20020;-70
2021/11/25 04:00:52;;;;;;;29.13;20.60;;;4.10;99.90;;;;;;5095801;28;20035;-70
2021/11/25 04:03:18;;;;;;;27.60;19.40;;;4.10;99.90;;;;;;5094528;28;20024;-71
2021/11/25 04:05:43;;;;;;;30.55;20.40;;;4.20;99.90;;;;;;5096270;28;20488;-70
2021/11/25 04:08:09;;;;;;;29.02;20.80;;;4.10;99.90;;;;;;5094651;28;20028;-71
2021/11/25 04:10:35;;;;;;;27.42;19.48;;;4.10;99.90;;;;;;5095447;28;20489;-70
2021/11/25 04:13:01;;;;;;;36.47;19.35;;;4.10;99.90;;;;;;5096136;28;20487;-71
2021/11/25 04:15:26;;;;;;;30.70;19.85;;;4.10;99.90;;;;;;5096039;28;20107;-70
2021/11/25 04:17:52;;;;;;;29.23;19.33;;;4.10;99.90;;;;;;5096072;28;20046;-70
2021/11/25 04:20:18;;;;;;;29.48;19.55;;;4.10;99.90;;;;;;5094986;28;20081;-71
2021/11/25 04:22:44;;;;;;;33.60;20.02;;;4.10;99.90;;;;;;5094115;28;20402;-71
2021/11/25 04:25:11;;;;;;;35.47;20.08;;;4.10;99.90;;;;;;5095596;28;20481;-70
2021/11/25 04:27:37;;;;;;;26.60;17.40;;;4.10;99.90;;;;;;5094656;28;20411;-71
2021/11/25 04:30:11;;;;;;;29.98;18.35;;;4.10;99.90;;;;;;5095695;28;20053;-70
2021/11/25 04:35:38;;;;;;;28.95;16.98;;;4.00;99.90;;;;;;5094988;28;20020;-71
2021/11/25 04:38:09;;;;;;;26.75;18.42;;;4.00;99.90;;;;;;5094651;28;20040;-71
2021/11/25 04:40:38;;;;;;;25.83;17.10;;;4.00;99.90;;;;;;5094648;28;20051;-71
2021/11/25 04:43:05;;;;;;;27.35;17.48;;;3.90;99.90;;;;;;5095570;28;20028;-70
2021/11/25 04:45:33;;;;;;;26.63;17.17;;;3.90;99.90;;;;;;5094076;28;20026;-71
2021/11/25 04:47:58;;;;;;;25.70;17.17;;;3.90;99.90;;;;;;5095174;28;20023;-71
2021/11/25 04:50:24;;;;;;;28.17;18.50;;;3.80;99.90;;;;;;5095345;28;20047;-70
2021/11/25 04:52:50;;;;;;;27.38;18.95;;;3.70;99.90;;;;;;5095384;28;20483;-71
2021/11/25 04:55:16;;;;;;;26.58;18.30;;;3.70;99.90;;;;;;5095366;28;20431;-71
2021/11/25 04:57:42;;;;;;;27.52;17.63;;;3.60;99.90;;;;;;5095297;28;20016;-70
2021/11/25 05:00:09;;;;;;;22.42;16.33;;;3.50;99.90;;;;;;5093764;28;20077;-70
2021/11/25 05:02:34;;;;;;;27.20;17.02;;;3.30;99.90;;;;;;5093745;28;20035;-71
2021/11/25 05:05:00;;;;;;;24.13;16.20;;;3.20;99.90;;;;;;5093318;28;20024;-70
2021/11/25 05:07:26;;;;;;;26.58;17.88;;;3.10;99.90;;;;;;5095060;28;20020;-70
2021/11/25 05:09:51;;;;;;;25.10;17.25;;;3.10;99.90;;;;;;5092955;28;20135;-70
2021/11/25 05:12:17;;;;;;;25.00;17.33;;;3.00;99.90;;;;;;5076307;28;20031;-70
2021/11/25 05:14:43;;;;;;;25.05;16.05;;;2.80;99.90;;;;;;5093553;28;20020;-70
2021/11/25 05:17:09;;;;;;;25.27;16.95;;;2.70;99.90;;;;;;5095000;28;20469;-70
2021/11/25 05:19:35;;;;;;;24.50;16.77;;;2.60;99.90;;;;;;5093205;28;20469;-71
2021/11/25 05:22:00;;;;;;;25.08;16.42;;;2.50;99.90;;;;;;5095137;28;20024;-70
2021/11/25 05:24:27;;;;;;;31.05;18.33;;;2.30;99.90;;;;;;5095093;28;20058;-71
2021/11/25 05:26:53;;;;;;;24.27;17.33;;;2.20;99.90;;;;;;5094775;28;20074;-70
2021/11/25 05:29:21;;;;;;;26.35;17.55;;;2.10;99.90;;;;;;5092938;28;20484;-70
2021/11/25 05:31:47;;;;;;;27.77;18.38;;;2.00;99.90;;;;;;5094087;28;20469;-70
2021/11/25 05:34:12;;;;;;;29.73;18.15;;;1.90;99.90;;;;;;5092748;28;20028;-71
2021/11/25 05:36:38;;;;;;;32.03;20.52;;;1.80;99.90;;;;;;5093110;28;20024;-71
2021/11/25 05:39:03;;;;;;;35.75;19.63;;;1.80;99.90;;;;;;5092698;28;20021;-70
2021/11/25 05:41:29;;;;;;;27.90;18.50;;;1.80;99.90;;;;;;5092978;28;20024;-70
2021/11/25 05:43:55;;;;;;;28.45;17.55;;;1.70;99.90;;;;;;5094374;28;20024;-71
2021/11/25 05:46:20;;;;;;;28.88;18.17;;;1.70;99.90;;;;;;5094310;28;20077;-71
2021/11/25 05:48:46;;;;;;;29.83;18.40;;;1.60;99.90;;;;;;5093902;28;20030;-71
2021/11/25 05:51:11;;;;;;;27.15;18.38;;;1.60;99.90;;;;;;5094252;28;20028;-71
2021/11/25 05:53:37;;;;;;;30.30;19.08;;;1.50;99.90;;;;;;5092284;28;20024;-70
2021/11/25 05:56:02;;;;;;;29.88;19.30;;;1.50;99.90;;;;;;5093864;28;20099;-71
2021/11/25 05:58:28;;;;;;;29.90;19.10;;;1.40;99.90;;;;;;5093027;28;20089;-70
2021/11/25 06:00:54;;;;;;;30.65;18.52;;;1.40;99.90;;;;;;5092752;28;20035;-71
2021/11/25 06:03:19;;;;;;;28.83;19.15;;;1.30;99.90;;;;;;5093164;28;20030;-70
2021/11/25 06:05:45;;;;;;;29.02;18.13;;;1.20;99.90;;;;;;5094175;28;20024;-70
2021/11/25 06:08:10;;;;;;;31.88;19.98;;;1.20;99.90;;;;;;5093023;28;20455;-70
2021/11/25 06:10:36;;;;;;;31.20;19.25;;;1.00;99.90;;;;;;5093391;28;20048;-70
2021/11/25 06:13:02;;;;;;;34.40;20.10;;;0.90;99.90;;;;;;5092272;28;20469;-70
2021/11/25 06:15:28;;;;;;;34.63;19.90;;;0.90;99.90;;;;;;5094092;28;20020;-70
2021/11/25 06:17:53;;;;;;;30.75;18.75;;;0.90;99.90;;;;;;5094093;28;20461;-70
2021/11/25 06:20:20;;;;;;;33.20;20.55;;;0.80;99.90;;;;;;5093750;28;20058;-70
2021/11/25 06:22:47;;;;;;;33.65;19.85;;;;;;;;;;5092545;28;20496;-70
2021/11/25 06:25:15;;;;;;;31.88;20.27;;;;;;;;;;5092764;28;20028;-70
2021/11/25 06:27:41;;;;;;;32.58;19.33;;;;;;;;;;5092247;28;20035;-70
2021/11/25 06:30:10;;;;;;;30.98;19.20;;;;;;;;;;5093688;28;20103;-70
2021/11/25 06:32:36;;;;;;;30.35;19.92;;;;;;;;;;5095930;28;20020;-70
2021/11/25 06:35:07;;;;;;;34.97;19.20;;;;;;;;;;5097796;28;20024;-70
2021/11/25 06:37:33;;;;;;;26.95;18.33;;;;;;;;;;5097751;28;20016;-70
2021/11/25 06:39:59;;;;;;;32.65;20.48;;;;;;;;;;5097704;28;20077;-70
2021/11/25 06:42:24;;;;;;;31.33;19.98;;;;;;;;;;5097672;28;20487;-70
2021/11/25 06:44:50;;;;;;;30.70;19.50;;;;;;;;;;5097618;28;20468;-70
2021/11/25 06:47:16;;;;;;;31.50;19.73;;;;;;;;;;5097546;28;20524;-70
2021/11/25 06:49:42;;;;;;;34.00;19.50;;;;;;;;;;5097287;28;20032;-70
2021/11/25 06:52:08;;;;;;;32.92;20.60;;;;;;;;;;5095903;28;20161;-70
2021/11/25 06:54:34;;;;;;;30.00;19.13;;;;;;;;;;5097384;28;20031;-70
2021/11/25 06:57:00;;;;;;;34.65;21.23;;;;;;;;;;5097372;28;20024;-70
2021/11/25 06:59:26;;;;;;;36.33;21.42;;;;;;;;;;5095741;28;20089;-70
2021/11/25 07:01:52;;;;;;;31.73;20.45;;;;;;;;;;5097183;28;20117;-70
2021/11/25 07:04:18;;;;;;;33.50;21.17;;;;;;;;;;5097176;28;20051;-70
2021/11/25 07:06:45;;;;;;;36.30;21.75;;;;;;;;;;5097128;28;20471;-70
2021/11/25 07:09:11;;;;;;;35.75;21.52;;;;;;;;;;5096969;28;20395;-70
2021/11/25 07:11:37;;;;;;;40.88;23.88;;;;;;;;;;5095766;28;20435;-70
2021/11/25 07:14:04;;;;;;;43.38;25.65;;;;;;;;;;5097006;28;20020;-70
2021/11/25 07:16:30;;;;;;;47.83;26.08;;;;;;;;;;5097205;28;20107;-67
2021/11/25 07:18:56;;;;;;;41.47;24.52;;;;;;;;;;5095786;28;20487;-70
2021/11/25 07:21:22;;;;;;;45.03;25.67;;;;;;;;;;5095404;28;20045;-70
2021/11/25 07:23:48;;;;;;;46.25;27.73;;;;;;;;;;5096908;28;20028;-71
2021/11/25 07:26:14;;;;;;;47.40;25.50;;;;;;;;;;5078572;28;20465;-70
2021/11/25 07:28:40;;;;;;;43.60;26.55;;;;;;;;;;5096799;28;20024;-70
2021/11/25 07:31:06;;;;;;;43.05;25.40;;;;;;;;;;5078402;28;20039;-65
2021/11/25 07:33:32;;;;;;;46.50;27.48;;;;;;;;;;5096643;28;20020;-64
2021/11/25 07:35:58;;;;;;;54.00;27.65;;;;;;;;;;5108595;28;20047;-65
2021/11/25 07:38:24;;;;;;;46.65;26.40;;;;;;;;;;5116651;27;20492;-65
2021/11/25 07:40:52;;;;;;;48.17;26.70;;;;;;;;;;5102150;28;20038;-66
2021/11/25 07:43:18;;;;;;;44.25;25.77;;;;;;;;;;5074188;28;20038;-65
2021/11/25 07:45:45;;;;;;;46.20;26.35;;;;;;;;;;5103138;28;20120;-65
2021/11/25 07:48:12;;;;;;;61.22;31.38;;;1.20;99.90;;;;;;5098125;28;20027;-64
2021/11/25 07:50:39;;;;;;;54.53;30.08;;;1.30;99.90;;;;;;5103953;28;20057;-65
2021/11/25 07:53:05;;;;;;;45.45;26.48;;;1.30;99.90;;;;;;5077660;28;20028;-64
2021/11/25 07:55:30;;;;;;;52.08;29.50;;;1.30;99.90;;;;;;5106319;28;20499;-64
2021/11/25 07:57:57;;;;;;;47.90;26.77;;;1.40;99.90;;;;;;5094412;28;20063;-64
2021/11/25 08:00:25;;;;;;;53.42;28.52;;;1.40;99.90;;;;;;5099847;28;20110;-64
2021/11/25 08:02:51;;;;;;;49.15;29.00;;;1.50;99.90;;;;;;5115215;28;20072;-65
2021/11/25 08:05:17;;;;;;;49.78;26.95;;;1.90;99.90;;;;;;5113213;28;20035;-65
2021/11/25 08:07:43;;;;;;;52.42;27.55;;;2.50;99.90;;;;;;5116300;28;20408;-65
2021/11/25 08:10:11;;;;;;;44.25;22.58;;;3.00;99.90;;;;;;5101505;28;20040;-65
2021/11/25 08:12:37;;;;;;;36.78;19.65;;;3.50;99.90;;;;;;5094718;28;20103;-64
2021/11/25 08:15:05;;;;;;;31.55;18.42;;;4.10;99.90;;;;;;5105488;28;20031;-66
2021/11/25 08:17:31;;;;;;;48.17;20.10;;;4.60;99.90;;;;;;5105276;28;20114;-65
2021/11/25 08:19:56;;;;;;;41.40;20.00;;;4.90;99.90;;;;;;5097822;28;20028;-65
2021/11/25 08:22:22;;;;;;;41.67;21.00;;;4.80;99.90;;;;;;5088435;28;20028;-65
2021/11/25 08:24:47;;;;;;;42.58;21.70;;;4.60;99.90;;;;;;5087956;28;20139;-65
2021/11/25 08:27:14;;;;;;;53.22;23.40;;;5.00;99.90;;;;;;5074313;28;20052;-66
2021/11/25 08:29:40;;;;;;;47.40;24.63;;;5.10;99.90;;;;;;5079966;28;20063;-64
2021/11/25 08:32:07;;;;;;;45.05;23.65;;;5.10;99.90;;;;;;5095429;28;20028;-67
2021/11/25 08:34:33;;;;;;;48.45;25.13;;;5.20;99.90;;;;;;5108004;28;20023;-66
2021/11/25 08:36:59;;;;;;;49.92;25.90;;;5.30;99.90;;;;;;5114861;28;20448;-64
2021/11/25 08:39:25;;;;;;;43.25;24.77;;;5.30;99.90;;;;;;5082675;28;20439;-64
2021/11/25 08:41:50;;;;;;;39.75;23.63;;;5.30;99.90;;;;;;5056852;28;20032;-66
2021/11/25 08:44:16;;;;;;;39.65;24.30;;;5.50;99.90;;;;;;5085858;28;20035;-65
2021/11/25 08:46:41;;;;;;;37.50;23.77;;;5.80;99.90;;;;;;5097901;28;20106;-66
2021/11/25 08:49:07;;;;;;;40.47;25.25;;;5.90;99.90;;;;;;5101451;28;20028;-66
2021/11/25 08:51:32;;;;;;;38.25;24.17;;;5.80;99.90;;;;;;5095365;28;20027;-64
2021/11/25 08:54:00;;;;;;;40.58;24.83;;;5.90;99.90;;;;;;5087215;28;20024;-66
2021/11/25 08:56:27;;;;;;;54.13;30.75;;;6.10;99.90;;;;;;5097227;28;20047;-65
2021/11/25 08:58:53;;;;;;;46.28;26.63;;;6.70;99.90;;;;;;5104546;28;20023;-65
2021/11/25 09:01:18;;;;;;;33.78;22.52;;;7.30;99.90;;;;;;5094345;28;20024;-65
2021/11/25 09:03:44;;;;;;;35.25;23.38;;;7.60;99.90;;;;;;5096715;28;20022;-66
2021/11/25 09:06:10;;;;;;;33.13;22.63;;;7.60;99.90;;;;;;5113516;28;20482;-66
2021/11/25 09:08:35;;;;;;;36.83;23.85;;;7.70;99.90;;;;;;5094412;28;20039;-66
2021/11/25 09:11:01;;;;;;;39.50;25.13;;;7.20;99.90;;;;;;5094607;28;20032;-65
2021/11/25 09:13:27;;;;;;;40.50;25.23;;;6.70;99.90;;;;;;5112279;28;20081;-66
2021/11/25 09:15:52;;;;;;;45.25;29.02;;;6.00;99.90;;;;;;5108190;28;20077;-65
2021/11/25 09:18:18;;;;;;;44.75;27.83;;;6.00;99.90;;;;;;5093514;28;20453;-66
2021/11/25 09:20:44;;;;;;;49.72;29.42;;;5.70;99.90;;;;;;5108075;28;20115;-64
2021/11/25 09:23:14;;;;;;;44.50;28.50;;;5.60;99.90;;;;;;5112886;28;20072;-65
2021/11/25 09:25:42;;;;;;;42.10;26.88;;;6.00;99.90;;;;;;5115098;28;20023;-65
2021/11/25 09:28:10;;;;;;;47.40;28.30;;;6.30;99.90;;;;;;5111494;28;20035;-65
2021/11/25 09:30:36;;;;;;;39.42;26.00;;;6.80;99.90;;;;;;5113253;28;20046;-65
2021/11/25 09:33:02;;;;;;;43.55;28.30;;;6.70;99.90;;;;;;5111556;28;20034;-65
2021/11/25 09:35:27;;;;;;;44.40;28.10;;;6.60;99.90;;;;;;5113063;28;20019;-65
2021/11/25 09:37:53;;;;;;;41.22;26.88;;;6.30;99.90;;;;;;5097029;28;20480;-65
2021/11/25 09:40:22;;;;;;;44.45;27.58;;;5.90;99.90;;;;;;5093430;28;20024;-65
2021/11/25 09:42:51;;;;;;;40.05;27.00;;;5.80;99.90;;;;;;5109508;28;20061;-65
2021/11/25 09:45:21;;;;;;;50.17;29.00;;;5.60;99.90;;;;;;5112996;28;20031;-65
2021/11/25 09:47:47;;;;;;;44.78;28.83;;;5.40;99.90;;;;;;5098814;28;20060;-66
2021/11/25 09:50:13;;;;;;;43.85;28.70;;;5.30;99.90;;;;;;5092418;28;20051;-65
2021/11/25 09:52:38;;;;;;;52.15;29.73;;;5.20;99.90;;;;;;5105624;28;20142;-65
2021/11/25 09:55:04;;;;;;;46.38;29.90;;;5.10;99.90;;;;;;5089070;28;20038;-65
2021/11/25 09:57:30;;;;;;;48.45;29.02;;;5.00;99.90;;;;;;5092716;28;20020;-65
2021/11/25 09:59:55;;;;;;;45.42;28.95;;;5.00;99.90;;;;;;5097185;28;20496;-67
2021/11/25 10:02:21;;;;;;;49.22;30.23;;;5.00;99.90;;;;;;5112617;28;20059;-66
2021/11/25 10:04:46;;;;;;;52.42;30.35;;;5.00;99.90;;;;;;5110636;28;20031;-66
2021/11/25 10:07:28;;;;;;;50.03;30.90;;;5.00;99.90;;;;;;5094043;28;20476;-66
2021/11/25 10:09:54;;;;;;;49.60;31.58;;;5.00;99.90;;;;;;5095408;28;20051;-65
2021/11/25 10:12:36;;;;;;;54.00;31.30;;;5.00;99.90;;;;;;5112712;28;20054;-66
2021/11/25 10:18:03;;;;;;;50.63;30.60;;;5.10;99.90;;;;;;5112216;27;20384;-65
2021/11/25 10:20:35;;;;;;;52.63;30.10;;;5.10;99.90;;;;;;5110160;28;20032;-66
2021/11/25 10:25:44;;;;;;;47.67;30.35;;;5.00;99.90;;;;;;5083972;28;20127;-65
2021/11/25 10:28:34;;;;;;;50.05;29.02;;;4.80;99.90;;;;;;5069530;28;20025;-65
2021/11/25 10:31:20;;;;;;;45.97;29.70;;;4.80;99.90;;;;;;5070317;28;20025;-65
2021/11/25 10:34:00;;;;;;;50.88;30.30;;;4.80;99.90;;;;;;5069038;28;20098;-65
2021/11/25 10:42:05;;;;;;;48.72;30.42;;;4.80;99.90;;;;;;5097241;28;20808;-65
2021/11/25 10:44:35;;;;;;;52.58;30.55;;;4.80;99.90;;;;;;5093704;28;20028;-64
2021/11/25 10:47:08;;;;;;;49.15;29.73;;;4.80;99.90;;;;;;5093432;28;20025;-65
2021/11/25 10:49:42;;;;;;;;;;;4.90;99.90;;;;;;5091024;28;20025;-65
2021/11/25 10:52:12;;;;;;;46.47;28.35;;;4.90;99.90;;;;;;5090821;28;19942;-66
2021/11/25 10:54:48;;;;;;;45.95;29.00;;;5.10;99.90;;;;;;5099930;28;20028;-66
2021/11/25 10:57:14;;;;;;;47.15;29.77;;;5.10;99.90;;;;;;5108610;28;20024;-65
2021/11/25 10:59:43;;;;;;;50.83;29.88;;;5.10;99.90;;;;;;5080094;28;20020;-65
2021/11/25 11:02:33;;;;;;;46.08;27.77;;;5.20;99.90;;;;;;5087481;28;20062;-65
2021/11/25 11:05:03;;;;;;;67.45;41.67;;;5.10;99.90;;;;;;5102298;28;20464;-65
2021/11/25 11:07:33;;;;;;;44.00;26.15;;;5.20;99.90;;;;;;5110482;28;20035;-65
2021/11/25 11:10:00;;;;;;;44.80;28.02;;;5.20;99.90;;;;;;5109103;28;20024;-65
2021/11/25 11:12:33;;;;;;;44.63;25.52;;;5.20;99.90;;;;;;5106131;28;20024;-65
2021/11/25 11:15:12;;;;;;;56.15;34.40;;;5.20;99.90;;;;;;5091583;28;20369;-65
2021/11/25 11:20:28;;;;;;;50.03;29.42;;;5.20;99.90;;;;;;5092396;28;20020;-65
2021/11/25 11:23:01;;;;;;;42.50;27.55;;;5.20;99.90;;;;;;5090191;28;20058;-66
2021/11/25 11:25:28;;;;;;;43.85;28.63;;;5.20;99.90;;;;;;5093621;28;20024;-65
2021/11/25 11:27:56;;;;;;;41.90;25.45;;;5.30;99.90;;;;;;5104048;28;20024;-65
2021/11/25 11:30:23;;;;;;;41.75;26.58;;;5.30;99.90;;;;;;5087606;28;20556;-65
2021/11/25 11:32:49;;;;;;;45.10;26.05;;;5.30;99.90;;;;;;5104210;28;20031;-65
2021/11/25 11:35:19;;;;;;;42.35;26.38;;;5.30;99.90;;;;;;5097335;28;20107;-65
2021/11/25 11:37:45;;;;;;;38.35;25.58;;;5.30;99.90;;;;;;5104626;28;20020;-65
2021/11/25 11:40:12;;;;;;;46.97;26.85;;;5.30;99.90;;;;;;5109950;28;20048;-65
2021/11/25 11:42:38;;;;;;;50.95;27.02;;;5.30;99.90;;;;;;5110017;28;20091;-65
2021/11/25 11:45:06;;;;;;;45.58;26.75;;;5.30;99.90;;;;;;5110451;28;20077;-65
2021/11/25 11:47:32;;;;;;;44.50;26.85;;;5.20;99.90;;;;;;5109211;28;20015;-65
2021/11/25 11:50:07;;;;;;;40.40;25.70;;;5.20;99.90;;;;;;5091836;28;20081;-65
2021/11/25 11:52:33;;;;;;;43.50;26.60;;;5.30;99.90;;;;;;5098786;28;20028;-65
2021/11/25 11:55:00;;;;;;;45.90;26.98;;;5.20;99.90;;;;;;5091312;28;20043;-65
2021/11/25 11:57:43;;;;;;;42.53;25.85;;;5.30;99.90;;;;;;5081835;28;20107;-65
2021/11/25 12:00:31;;;;;;;40.90;25.73;;;5.30;99.90;;;;;;5056011;28;20033;-65
2021/11/25 12:02:58;;;;;;;47.80;27.10;;;5.30;99.90;;;;;;5089816;28;20035;-65
2021/11/25 12:05:43;;;;;;;42.95;27.13;;;5.30;99.90;;;;;;5058602;28;20457;-65
2021/11/25 12:08:34;;;;;;;47.15;26.73;;;5.40;99.90;;;;;;5094864;28;20078;-65
2021/11/25 12:13:56;;;;;;;44.55;27.90;;;5.30;99.90;;;;;;5092461;27;20425;-64
2021/11/25 12:19:04;;;;;;;43.42;26.50;;;5.30;99.90;;;;;;5112040;27;20294;-65
2021/11/25 12:21:49;;;;;;;45.88;27.83;;;5.40;99.90;;;;;;5106039;28;20019;-65
2021/11/25 12:24:20;;;;;;;53.25;32.50;;;5.40;99.90;;;;;;5109214;28;20503;-65
2021/11/25 12:27:13;;;;;;;57.80;34.08;;;5.50;99.90;;;;;;5107748;28;20024;-65
2021/11/25 12:35:38;;;;;;;47.80;27.27;;;5.60;99.90;;;;;;5082690;28;20461;-65
2021/11/25 12:38:08;;;;;;;49.45;28.65;;;5.60;99.90;;;;;;5070963;28;20468;-65
2021/11/25 12:40:38;;;;;;;54.45;28.42;;;5.40;99.90;;;;;;5054094;28;20425;-65
2021/11/25 12:43:12;;;;;;;48.90;28.30;;;5.40;99.90;;;;;;5051272;28;20416;-65
2021/11/25 12:45:44;;;;;;;52.10;28.80;;;5.30;99.90;;;;;;5051209;28;20021;-65
2021/11/25 12:48:12;;;;;;;51.22;29.77;;;5.30;99.90;;;;;;5051514;28;20399;-65
2021/11/25 12:50:53;;;;;;;50.63;29.33;;;5.30;99.90;;;;;;5051284;28;20052;-65
2021/11/25 12:53:24;;;;;;;52.45;30.55;;;5.30;99.90;;;;;;5031022;28;20026;-65
2021/11/25 12:55:58;;;;;;;50.72;29.90;;;5.30;99.90;;;;;;5030871;28;20021;-65
2021/11/25 12:58:34;;;;;;;58.13;32.88;;;5.30;99.90;;;;;;5045831;28;20116;-65
2021/11/25 13:01:00;;;;;;;54.95;32.47;;;5.30;99.90;;;;;;5045727;28;20017;-65
2021/11/25 13:03:26;;;;;;;57.35;32.05;;;5.20;99.90;;;;;;5030168;28;20383;-66
2021/11/25 13:05:52;;;;;;;56.95;32.05;;;5.20;99.90;;;;;;5029513;28;20030;-65
2021/11/25 13:08:38;;;;;;;61.88;34.20;;;5.20;99.90;;;;;;5029202;28;20030;-65
2021/11/25 13:11:13;;;;;;;68.65;35.10;;;5.10;99.90;;;;;;5047816;28;20024;-65
2021/11/25 13:13:39;;;;;;;64.10;36.30;;;5.10;99.90;;;;;;5053558;28;20462;-65
2021/11/25 13:16:08;;;;;;;73.07;37.95;;;5.10;99.90;;;;;;5054086;28;20043;-65
2021/11/25 13:19:01;;;;;;;65.82;36.78;;;5.10;99.90;;;;;;5051733;28;20029;-66